Time;durP1;ratioP1;P1;durP2;ratioP2;P2;SDS_P1;SDS_P2;PMS_P1;PMS_P2;Temp;Humidity;BMP_temperature;BMP_pressure;BME280_temperature;BME280_humidity;BME280_pressure;Samples;Min_cycle;Max_cycle;Signal;HPM_P1;HPM_P2
2023/04/09 00:00:16;;;;;;;59.85;34.00;;;;;;;;;;5039235;28;20103;-95
2023/04/09 00:02:44;;;;;;;57.55;31.58;;;;;;;;;;5041808;28;20128;-94
2023/04/09 00:05:11;;;;;;;58.83;32.83;;;;;;;;;;5039925;28;20053;-94
2023/04/09 00:07:38;;;;;;;65.20;35.20;;;;;;;;;;5039787;28;20049;-94
2023/04/09 00:10:06;;;;;;;63.47;33.65;;;;;;;;;;5039748;28;20102;-94
2023/04/09 00:12:33;;;;;;;62.72;33.72;;;;;;;;;;5040005;28;20063;-94
2023/04/09 00:15:00;;;;;;;54.70;32.92;;;;;;;;;;5039559;28;20057;-94
2023/04/09 00:17:28;;;;;;;56.90;33.67;;;;;;;;;;5039416;28;20485;-94
2023/04/09 00:19:55;;;;;;;57.30;31.02;;;;;;;;;;5039808;28;20106;-94
2023/04/09 00:22:22;;;;;;;59.78;32.95;;;;;;;;;;5039365;28;20076;-93
2023/04/09 00:24:49;;;;;;;62.15;31.98;;;;;;;;;;5039650;28;20063;-94
2023/04/09 00:27:16;;;;;;;56.85;33.20;;;;;;;;;;5039650;28;20057;-95
2023/04/09 00:29:44;;;;;;;61.03;32.17;;;;;;;;;;5039812;28;20071;-95
2023/04/09 00:32:11;;;;;;;57.03;33.40;;;;;;;;;;5039556;28;20075;-94
2023/04/09 00:34:38;;;;;;;54.47;32.05;;;;;;;;;;5042967;28;20055;-94
2023/04/09 00:37:05;;;;;;;55.22;32.60;;;;;;;;;;5059460;28;20096;-93
2023/04/09 00:39:33;;;;;;;58.08;33.10;;;;;;;;;;5041183;28;20087;-94
2023/04/09 00:42:03;;;;;;;58.92;32.28;;;;;;;;;;5039235;28;20056;-94
2023/04/09 00:44:30;;;;;;;57.42;32.78;;;;;;;;;;5039228;28;20045;-94
2023/04/09 00:47:00;;;;;;;61.03;33.83;;;;;;;;;;5039673;28;20067;-94
2023/04/09 00:49:28;;;;;;;52.20;31.27;;;;;;;;;;5039142;28;20378;-94
2023/04/09 00:51:55;;;;;;;57.38;32.58;;;;;;;;;;5039094;28;20072;-94
2023/04/09 00:54:22;;;;;;;54.47;31.85;;;;;;;;;;5039360;28;20152;-94
2023/04/09 00:56:50;;;;;;;60.47;33.17;;;;;;;;;;5039076;28;20511;-94
2023/04/09 00:59:17;;;;;;;59.90;32.42;;;;;;;;;;5038959;28;20064;-94
2023/04/09 01:01:45;;;;;;;62.67;33.05;;;;;;;;;;5038703;28;20048;-95
2023/04/09 01:04:12;;;;;;;67.55;34.85;;;;;;;;;;5038693;28;20175;-95
2023/04/09 01:06:45;;;;;;;53.30;32.17;;;;;;;;;;5039050;28;20053;-95
2023/04/09 01:09:18;;;;;;;55.55;30.95;;;;;;;;;;5038832;28;20124;-94
2023/04/09 01:11:58;;;;;;;54.60;32.50;;;;;;;;;;5038258;28;20045;-96
2023/04/09 01:14:37;;;;;;;53.00;30.90;;;;;;;;;;5038489;28;20056;-94
2023/04/09 01:17:05;;;;;;;49.45;29.55;;;;;;;;;;5038290;28;20045;-94
2023/04/09 01:19:48;;;;;;;51.47;30.10;;;;;;;;;;5038427;28;20053;-94
2023/04/09 01:22:27;;;;;;;58.50;30.90;;;;;;;;;;5038539;28;20049;-94
2023/04/09 01:25:00;;;;;;;50.70;30.08;;;;;;;;;;5038412;28;20045;-94
2023/04/09 01:27:32;;;;;;;51.70;30.05;;;;;;;;;;5038449;28;20052;-94
2023/04/09 01:30:04;;;;;;;53.40;30.73;;;;;;;;;;5038378;28;20140;-95
2023/04/09 01:32:32;;;;;;;51.78;32.28;;;;;;;;;;5038449;28;20310;-94
2023/04/09 01:34:59;;;;;;;52.47;30.50;;;;;;;;;;5042678;28;20056;-92
2023/04/09 01:37:27;;;;;;;48.88;29.02;;;;;;;;;;5045479;28;20123;-94
2023/04/09 01:39:54;;;;;;;46.63;28.83;;;;;;;;;;5038233;28;20045;-94
2023/04/09 01:42:22;;;;;;;55.00;31.65;;;;;;;;;;5038349;28;20254;-95
2023/04/09 01:44:49;;;;;;;53.17;28.83;;;;;;;;;;5038394;28;20064;-94
2023/04/09 01:47:17;;;;;;;49.67;29.70;;;;;;;;;;5039506;28;20045;-93
2023/04/09 01:49:44;;;;;;;57.50;30.83;;;;;;;;;;5052550;28;20120;-92
2023/04/09 01:52:11;;;;;;;50.97;29.52;;;;;;;;;;5048205;28;20041;-94
2023/04/09 01:54:39;;;;;;;49.08;30.00;;;;;;;;;;5037751;28;20404;-94
2023/04/09 01:57:06;;;;;;;50.97;30.30;;;;;;;;;;5037674;28;20049;-94
2023/04/09 01:59:33;;;;;;;52.50;30.48;;;;;;;;;;5037939;28;20053;-94
2023/04/09 02:02:07;;;;;;;51.30;29.63;;;;;;;;;;5037753;28;20056;-94
2023/04/09 02:04:43;;;;;;;46.03;29.45;;;;;;;;;;5037393;28;20056;-94
2023/04/09 02:07:23;;;;;;;51.42;30.48;;;;;;;;;;5037371;28;20104;-94
2023/04/09 02:09:51;;;;;;;48.63;28.20;;;;;;;;;;5037628;28;20048;-95
2023/04/09 02:12:18;;;;;;;50.30;28.67;;;;;;;;;;5037072;28;20055;-93
2023/04/09 02:14:46;;;;;;;51.20;29.73;;;;;;;;;;5037252;28;20155;-94
2023/04/09 02:17:13;;;;;;;56.80;33.28;;;;;;;;;;5036991;28;20052;-95
2023/04/09 02:19:44;;;;;;;67.68;35.75;;;;;;;;;;5037105;28;20045;-95
2023/04/09 02:22:11;;;;;;;69.75;38.42;;;;;;;;;;5036617;28;20116;-95
2023/04/09 02:24:42;;;;;;;64.43;35.50;;;;;;;;;;5036799;28;20052;-95
2023/04/09 02:27:09;;;;;;;62.75;33.25;;;;;;;;;;5037002;28;20048;-94
2023/04/09 02:29:36;;;;;;;64.05;32.88;;;;;;;;;;5036837;28;20243;-94
2023/04/09 02:32:04;;;;;;;57.50;31.95;;;;;;;;;;5036731;28;20503;-94
2023/04/09 02:34:31;;;;;;;58.97;31.25;;;;;;;;;;5037142;28;20049;-94
2023/04/09 02:36:58;;;;;;;58.88;31.55;;;;;;;;;;5036894;28;20077;-95
2023/04/09 02:39:26;;;;;;;65.07;34.88;;;;;;;;;;5036967;28;20063;-95
2023/04/09 02:41:53;;;;;;;57.95;32.33;;;;;;;;;;5036549;28;20415;-95
2023/04/09 02:44:20;;;;;;;73.20;37.88;;;;;;;;;;5036890;28;20072;-94
2023/04/09 02:46:48;;;;;;;64.40;34.05;;;;;;;;;;5037100;28;20060;-94
2023/04/09 02:49:15;;;;;;;73.93;35.85;;;;;;;;;;5037136;28;20045;-94
2023/04/09 02:51:42;;;;;;;63.05;35.20;;;;;;;;;;5036702;28;20063;-94
2023/04/09 02:54:10;;;;;;;70.70;35.80;;;;;;;;;;5036541;28;20082;-94
2023/04/09 02:56:37;;;;;;;67.93;35.88;;;;;;;;;;5036684;28;20060;-95
2023/04/09 02:59:04;;;;;;;67.45;35.30;;;;;;;;;;5036668;28;20049;-94
2023/04/09 03:01:31;;;;;;;75.75;37.15;;;;;;;;;;5041486;28;20140;-94
2023/04/09 03:03:59;;;;;;;70.70;36.38;;;;;;;;;;5056730;28;20048;-92
2023/04/09 03:06:27;;;;;;;70.78;36.50;;;;;;;;;;5037954;28;20041;-94
2023/04/09 03:08:54;;;;;;;67.63;34.95;;;;;;;;;;5036770;28;20068;-94
2023/04/09 03:11:21;;;;;;;60.22;35.38;;;;;;;;;;5038670;28;20140;-95
2023/04/09 03:13:49;;;;;;;56.72;33.97;;;;;;;;;;5036373;28;20045;-95
2023/04/09 03:16:16;;;;;;;67.53;35.35;;;;;;;;;;5036737;28;20049;-94
2023/04/09 03:18:43;;;;;;;56.17;32.75;;;;;;;;;;5036562;28;20052;-94
2023/04/09 03:21:10;;;;;;;59.33;33.20;;;;;;;;;;5036438;28;20503;-95
2023/04/09 03:23:40;;;;;;;52.47;30.27;;;;;;;;;;5036319;28;20088;-95
2023/04/09 03:26:08;;;;;;;49.75;29.48;;;;;;;;;;5036325;28;20091;-95
2023/04/09 03:28:35;;;;;;;52.88;30.40;;;;;;;;;;5036284;28;20053;-94
2023/04/09 03:31:02;;;;;;;55.63;32.22;;;;;;;;;;5036492;28;20212;-94
2023/04/09 03:33:29;;;;;;;52.47;30.67;;;;;;;;;;5037144;28;20476;-94
2023/04/09 03:35:57;;;;;;;50.70;30.25;;;;;;;;;;5042718;28;20049;-94
2023/04/09 03:38:24;;;;;;;50.00;29.90;;;;;;;;;;5042731;28;20048;-93
2023/04/09 03:40:51;;;;;;;52.97;30.63;;;;;;;;;;5042935;28;20045;-95
2023/04/09 03:43:18;;;;;;;52.80;31.27;;;;;;;;;;5043101;28;20053;-95
2023/04/09 03:45:45;;;;;;;47.80;29.75;;;;;;;;;;5042795;28;20053;-94
2023/04/09 03:48:13;;;;;;;50.55;30.27;;;;;;;;;;5049037;28;20087;-94
2023/04/09 03:50:40;;;;;;;56.92;31.27;;;;;;;;;;5049402;28;20139;-94
2023/04/09 03:53:07;;;;;;;49.78;29.83;;;;;;;;;;5042913;28;20522;-95
2023/04/09 03:55:35;;;;;;;49.90;30.67;;;;;;;;;;5042668;28;20412;-94
2023/04/09 03:58:02;;;;;;;52.25;30.40;;;;;;;;;;5042742;28;20052;-95
2023/04/09 04:00:29;;;;;;;50.38;30.10;;;;;;;;;;5043063;28;20052;-94
2023/04/09 04:02:56;;;;;;;55.53;31.75;;;;;;;;;;5042544;28;20098;-94
2023/04/09 04:05:25;;;;;;;51.80;30.17;;;;;;;;;;5042486;28;20053;-94
2023/04/09 04:07:52;;;;;;;48.65;29.42;;;;;;;;;;5042874;28;20057;-94
2023/04/09 04:10:19;;;;;;;48.72;29.30;;;;;;;;;;5043177;28;20429;-94
2023/04/09 04:12:47;;;;;;;54.85;30.73;;;;;;;;;;5042985;28;20057;-94
2023/04/09 04:15:14;;;;;;;55.08;31.48;;;;;;;;;;5049224;28;20112;-95
2023/04/09 04:17:41;;;;;;;49.13;29.95;;;;;;;;;;5062324;28;20107;-94
2023/04/09 04:20:09;;;;;;;48.58;29.27;;;;;;;;;;5042907;28;20060;-94
2023/04/09 04:22:36;;;;;;;50.33;29.55;;;;;;;;;;5042331;28;20176;-95
2023/04/09 04:25:04;;;;;;;51.50;30.17;;;;;;;;;;5042352;28;20064;-95
2023/04/09 04:27:31;;;;;;;44.45;27.77;;;;;;;;;;5042296;28;20131;-94
2023/04/09 04:30:00;;;;;;;49.13;28.90;;;;;;;;;;5042312;28;20049;-95
2023/04/09 04:32:28;;;;;;;46.15;28.48;;;;;;;;;;5042557;28;20052;-94
2023/04/09 04:34:55;;;;;;;48.55;29.77;;;;;;;;;;5042324;28;20065;-94
2023/04/09 04:37:22;;;;;;;44.20;27.80;;;;;;;;;;5042450;28;20049;-94
2023/04/09 04:39:50;;;;;;;44.13;27.48;;;;;;;;;;5042327;28;20049;-94
2023/04/09 04:42:17;;;;;;;52.70;29.85;;;;;;;;;;5042582;28;20049;-94
2023/04/09 04:44:45;;;;;;;52.88;29.25;;;;;;;;;;5042285;28;20053;-95
2023/04/09 04:47:12;;;;;;;48.20;28.40;;;;;;;;;;5038574;28;20445;-94
2023/04/09 04:49:39;;;;;;;46.55;27.90;;;;;;;;;;5039119;28;20051;-94
2023/04/09 04:52:06;;;;;;;46.42;27.65;;;;;;;;;;5039029;28;20057;-94
2023/04/09 04:54:34;;;;;;;47.40;28.20;;;;;;;;;;5038982;28;20057;-94
2023/04/09 04:57:01;;;;;;;45.15;26.25;;;;;;;;;;5039379;28;20508;-95
2023/04/09 04:59:28;;;;;;;52.22;29.02;;;;;;;;;;5038521;28;20415;-93
2023/04/09 05:01:56;;;;;;;43.63;25.63;;;;;;;;;;5038724;28;20140;-95
2023/04/09 05:04:23;;;;;;;43.85;25.80;;;;;;;;;;5038611;28;20144;-94
2023/04/09 05:06:50;;;;;;;47.53;26.65;;;;;;;;;;5038618;28;20053;-95
2023/04/09 05:09:17;;;;;;;53.75;29.25;;;;;;;;;;5038713;28;20144;-95
2023/04/09 05:11:48;;;;;;;51.53;27.90;;;;;;;;;;5039024;28;20060;-94
2023/04/09 05:14:15;;;;;;;60.85;30.77;;;;;;;;;;5038921;28;20076;-94
2023/04/09 05:16:43;;;;;;;77.20;34.28;;;;;;;;;;5038521;28;20045;-95
2023/04/09 05:19:10;;;;;;;83.72;36.88;;;;;;;;;;5038271;28;20111;-95
2023/04/09 05:21:37;;;;;;;75.40;33.95;;;;;;;;;;5038778;28;20075;-95
2023/04/09 05:24:05;;;;;;;77.13;34.90;;;;;;;;;;5038073;28;20405;-95
2023/04/09 05:26:32;;;;;;;85.68;36.30;;;;;;;;;;5039488;28;20486;-95
2023/04/09 05:28:59;;;;;;;86.22;37.83;;;;;;;;;;5049356;28;20045;-94
2023/04/09 05:31:26;;;;;;;80.50;36.83;;;;;;;;;;5055975;28;20072;-94
2023/04/09 05:33:53;;;;;;;75.13;34.95;;;;;;;;;;5038208;28;20059;-95
2023/04/09 05:36:20;;;;;;;68.32;35.03;;;;;;;;;;5038369;28;20045;-94
2023/04/09 05:38:48;;;;;;;82.95;37.40;;;;;;;;;;5037737;28;20056;-94
2023/04/09 05:41:15;;;;;;;83.43;39.00;;;;;;;;;;5038134;28;20053;-93
2023/04/09 05:43:43;;;;;;;77.57;37.97;;;;;;;;;;5037810;28;20059;-94
2023/04/09 05:46:10;;;;;;;81.63;39.38;;;;;;;;;;5038165;28;20405;-95
2023/04/09 05:48:37;;;;;;;71.60;38.42;;;;;;;;;;5037983;28;20172;-94
2023/04/09 05:51:05;;;;;;;69.15;36.90;;;;;;;;;;5037784;28;20049;-94
2023/04/09 05:53:32;;;;;;;70.03;37.13;;;;;;;;;;5037483;28;20132;-94
2023/04/09 05:55:59;;;;;;;55.80;33.10;;;;;;;;;;5037938;28;20041;-95
2023/04/09 05:58:28;;;;;;;48.22;31.10;;;;;;;;;;5037456;28;20055;-94
2023/04/09 06:00:56;;;;;;;39.08;25.65;;;;;;;;;;5044426;28;20112;-93
2023/04/09 06:03:23;;;;;;;36.75;25.08;;;;;;;;;;5046076;28;20308;-94
2023/04/09 06:05:50;;;;;;;32.55;23.13;;;;;;;;;;5037261;28;20048;-95
2023/04/09 06:08:18;;;;;;;28.75;20.73;;;;;;;;;;5037617;28;20135;-94
2023/04/09 06:10:45;;;;;;;31.27;21.17;;;;;;;;;;5037458;28;20464;-95
2023/04/09 06:13:12;;;;;;;27.45;20.15;;;;;;;;;;5037722;28;20053;-95
2023/04/09 06:15:39;;;;;;;27.38;19.17;;;;;;;;;;5037362;28;20056;-95
2023/04/09 06:18:07;;;;;;;26.25;18.90;;;;;;;;;;5037462;28;20056;-95
2023/04/09 06:20:34;;;;;;;23.98;18.33;;;;;;;;;;5037460;28;20064;-96
2023/04/09 06:23:01;;;;;;;23.88;18.20;;;;;;;;;;5036907;28;20139;-94
2023/04/09 06:25:29;;;;;;;23.50;17.73;;;;;;;;;;5037396;28;20057;-94
2023/04/09 06:27:56;;;;;;;22.10;16.92;;;;;;;;;;5037550;28;20408;-95
2023/04/09 06:30:23;;;;;;;21.38;16.63;;;;;;;;;;5040032;28;20053;-95
2023/04/09 06:32:50;;;;;;;24.48;18.08;;;;;;;;;;5036910;28;20640;-95
2023/04/09 06:35:21;;;;;;;20.45;16.27;;;;;;;;;;5037928;28;20136;-95
2023/04/09 06:37:48;;;;;;;22.63;17.15;;;;;;;;;;5038207;28;20053;-94
2023/04/09 06:40:15;;;;;;;20.63;16.20;;;;;;;;;;5039035;28;20049;-95
2023/04/09 06:42:43;;;;;;;19.35;15.68;;;;;;;;;;5051377;28;20063;-93
2023/04/09 06:45:10;;;;;;;21.67;16.85;;;;;;;;;;5049967;28;20048;-95
2023/04/09 06:47:37;;;;;;;21.10;16.17;;;;;;;;;;5038815;28;20151;-95
2023/04/09 06:50:05;;;;;;;21.30;16.52;;;;;;;;;;5040588;28;20052;-95
2023/04/09 06:52:32;;;;;;;20.42;16.77;;;;;;;;;;5040044;28;20052;-96
2023/04/09 06:54:59;;;;;;;21.02;17.17;;;;;;;;;;5038940;28;20049;-95
2023/04/09 06:57:27;;;;;;;22.45;17.38;;;;;;;;;;5039488;28;20087;-96
2023/04/09 06:59:56;;;;;;;24.70;18.17;;;;;;;;;;5039635;28;20053;-95
2023/04/09 07:02:23;;;;;;;22.30;17.45;;;;;;;;;;5040562;28;20045;-95
2023/04/09 07:04:51;;;;;;;23.45;17.80;;;;;;;;;;5041240;28;20401;-96
2023/04/09 07:07:19;;;;;;;24.23;18.80;;;;;;;;;;5041652;28;20061;-95
2023/04/09 07:09:47;;;;;;;23.42;18.00;;;;;;;;;;5041300;28;20143;-96
2023/04/09 07:12:15;;;;;;;24.45;19.15;;;;;;;;;;5044872;28;20611;-95
2023/04/09 07:14:42;;;;;;;23.98;18.70;;;;;;;;;;5042038;28;20098;-95
2023/04/09 07:17:10;;;;;;;23.52;18.42;;;;;;;;;;5041468;28;20049;-96
2023/04/09 07:19:37;;;;;;;22.02;17.92;;;;;;;;;;5041144;28;20075;-95
2023/04/09 07:22:04;;;;;;;21.15;17.65;;;;;;;;;;5040063;28;20440;-95
2023/04/09 07:24:32;;;;;;;23.60;18.27;;;;;;;;;;5039495;28;20064;-95
2023/04/09 07:27:03;;;;;;;21.33;16.77;;;;;;;;;;5039295;28;20059;-95
2023/04/09 07:29:30;;;;;;;20.98;16.60;;;;;;;;;;5041315;28;20079;-95
2023/04/09 07:31:59;;;;;;;18.98;16.15;;;;;;;;;;5042111;28;20068;-95
2023/04/09 07:34:27;;;;;;;18.40;15.20;;;;;;;;;;5041639;28;20503;-96
2023/04/09 07:36:55;;;;;;;26.00;20.40;;;;;;;;;;5040195;28;20132;-96
2023/04/09 07:39:25;;;;;;;20.02;16.65;;;;;;;;;;5040580;28;20071;-95
2023/04/09 07:41:53;;;;;;;18.58;16.02;;;;;;;;;;5037740;28;20075;-95
2023/04/09 07:44:21;;;;;;;16.45;14.52;;;;;;;;;;5038750;28;20045;-95
2023/04/09 07:46:48;;;;;;;16.00;14.25;;;;;;;;;;5037774;28;20501;-95
2023/04/09 07:49:16;;;;;;;17.58;14.60;;;;;;;;;;5037457;28;20144;-93
2023/04/09 07:51:43;;;;;;;34.92;24.48;;;;;;;;;;5045101;28;20040;-95
2023/04/09 07:54:11;;;;;;;92.03;53.67;;;;;;;;;;5045408;28;20053;-95
2023/04/09 07:56:39;;;;;;;16.65;14.32;;;;;;;;;;5058578;28;20059;-94
2023/04/09 07:59:10;;;;;;;19.77;14.75;;;;;;;;;;5044683;28;20115;-96
2023/04/09 08:01:42;;;;;;;20.65;16.67;;;;;;;;;;5046112;28;20064;-95
2023/04/09 08:04:11;;;;;;;15.20;13.30;;;;;;;;;;5042867;28;20044;-95
2023/04/09 08:06:40;;;;;;;23.33;18.92;;;;;;;;;;5044911;28;20053;-96
2023/04/09 08:09:07;;;;;;;19.63;16.00;;;;;;;;;;5046521;28;20049;-95
2023/04/09 08:11:36;;;;;;;24.02;20.98;;;;;;;;;;5051905;28;20131;-94
2023/04/09 08:14:05;;;;;;;15.73;13.20;;;;;;;;;;5042972;28;20052;-95
2023/04/09 08:16:32;;;;;;;22.52;19.25;;;;;;;;;;5043438;28;20048;-96
2023/04/09 08:18:59;;;;;;;19.63;17.15;;;;;;;;;;5039238;28;20497;-95
2023/04/09 08:21:27;;;;;;;15.32;13.73;;;;;;;;;;5039379;28;20049;-95
2023/04/09 08:24:00;;;;;;;13.82;11.70;;;;;;;;;;5040447;28;20408;-95
2023/04/09 08:26:27;;;;;;;15.02;13.40;;;;;;;;;;5041627;28;20573;-95
2023/04/09 08:28:54;;;;;;;13.68;12.27;;;;;;;;;;5042089;28;20056;-94
2023/04/09 08:31:21;;;;;;;15.18;13.18;;;;;;;;;;5040988;28;20471;-93
2023/04/09 08:33:49;;;;;;;17.52;14.07;;;;;;;;;;5041245;28;20052;-94
2023/04/09 08:36:17;;;;;;;16.58;14.80;;;;;;;;;;5040407;28;20045;-93
2023/04/09 08:38:45;;;;;;;23.40;16.20;;;;;;;;;;5042417;28;20056;-93
2023/04/09 08:41:17;;;;;;;16.08;12.88;;;;;;;;;;5040833;28;20056;-93
2023/04/09 08:43:46;;;;;;;20.38;16.83;;;;;;;;;;5040627;28;20490;-93
2023/04/09 08:46:19;;;;;;;13.68;12.30;;;;;;;;;;5040672;28;20136;-93
2023/04/09 08:48:54;;;;;;;13.15;11.85;;;;;;;;;;5042199;28;20052;-92
2023/04/09 08:51:23;;;;;;;13.10;11.75;;;;;;;;;;5045382;28;20057;-93
2023/04/09 08:53:58;;;;;;;12.65;11.35;;;;;;;;;;5043557;28;20084;-93
2023/04/09 08:56:30;;;;;;;11.85;10.65;;;;;;;;;;5040593;28;20509;-93
2023/04/09 08:58:57;;;;;;;11.10;10.00;;;;;;;;;;5047828;28;20513;-92
2023/04/09 09:01:29;;;;;;;10.90;9.90;;;;;;;;;;5060708;28;20056;-92
2023/04/09 09:03:59;;;;;;;12.00;10.80;;;;;;;;;;5040158;28;20053;-92
2023/04/09 09:06:30;;;;;;;13.07;11.70;;;;;;;;;;5045771;28;20079;-93
2023/04/09 09:09:07;;;;;;;12.43;11.13;;;;;;;;;;5060778;28;20040;-93
2023/04/09 09:11:35;;;;;;;11.70;10.60;;;;;;;;;;5043276;28;20053;-93
2023/04/09 09:14:07;;;;;;;13.15;11.75;;;;;;;;;;5045698;28;20080;-95
2023/04/09 09:16:38;;;;;;;11.82;10.63;;;;;;;;;;5040304;28;20283;-93
2023/04/09 09:19:06;;;;;;;10.13;9.13;;;;;;;;;;5038914;28;20048;-92
2023/04/09 09:21:35;;;;;;;10.52;9.35;;;;;;;;;;5039000;28;20408;-92
2023/04/09 09:24:15;;;;;;;10.07;9.07;;;;;;;;;;5038609;28;20063;-93
2023/04/09 09:26:47;;;;;;;9.90;8.90;;;;;;;;;;5045852;28;20106;-93
2023/04/09 09:29:18;;;;;;;11.02;9.88;;;;;;;;;;5061972;28;20045;-93
2023/04/09 09:31:48;;;;;;;10.07;9.07;;;;;;;;;;5057762;28;20390;-93
2023/04/09 09:34:16;;;;;;;11.35;10.15;;;;;;;;;;5042378;28;20056;-93
2023/04/09 09:36:44;;;;;;;18.33;15.55;;;;;;;;;;5044988;28;20084;-92
2023/04/09 09:39:13;;;;;;;10.77;9.68;;;;;;;;;;5041345;28;20460;-93
2023/04/09 09:41:41;;;;;;;9.00;8.10;;;;;;;;;;5041709;28;20410;-93
2023/04/09 09:44:09;;;;;;;7.95;7.22;;;;;;;;;;5044812;28;20060;-92
2023/04/09 09:46:37;;;;;;;10.85;7.35;;;;;;;;;;5042772;28;20051;-92
2023/04/09 09:49:05;;;;;;;8.00;7.40;;;;;;;;;;5039489;28;20053;-93
2023/04/09 09:51:33;;;;;;;8.05;7.25;;;;;;;;;;5042354;28;20056;-93
2023/04/09 09:54:01;;;;;;;7.55;6.82;;;;;;;;;;5056255;28;20588;-92
2023/04/09 09:56:35;;;;;;;8.60;7.75;;;;;;;;;;5038040;28;20086;-93
2023/04/09 09:59:06;;;;;;;17.17;12.85;;;;;;;;;;5039306;28;20132;-94
2023/04/09 10:01:35;;;;;;;10.55;9.27;;;;;;;;;;5042519;28;20544;-93
2023/04/09 10:04:05;;;;;;;7.88;7.18;;;;;;;;;;5038763;28;20051;-92
2023/04/09 10:06:33;;;;;;;8.88;7.43;;;;;;;;;;5042101;28;20131;-93
2023/04/09 10:09:03;;;;;;;8.30;7.28;;;;;;;;;;5041850;28;20048;-91
2023/04/09 10:11:35;;;;;;;7.70;7.00;;;;;;;;;;5040010;28;20144;-93
2023/04/09 10:14:04;;;;;;;12.40;9.05;;;;;;;;;;5039308;28;20139;-93
2023/04/09 10:16:32;;;;;;;6.82;6.32;;;;;;;;;;5038935;28;20041;-91
2023/04/09 10:19:00;;;;;;;6.75;6.20;;;;;;;;;;5052859;28;20067;-91
2023/04/09 10:21:47;;;;;;;6.90;6.28;;;;;;;;;;5059981;28;20040;-93
2023/04/09 10:24:15;;;;;;;14.27;10.93;;;;;;;;;;5044379;28;20087;-93
2023/04/09 10:26:46;;;;;;;10.50;8.48;;;;;;;;;;5040301;28;20053;-94
2023/04/09 10:29:14;;;;;;;8.98;8.15;;;;;;;;;;5043526;28;20044;-93
2023/04/09 10:31:51;;;;;;;10.75;9.32;;;;;;;;;;5040768;28;20053;-92
2023/04/09 10:34:23;;;;;;;10.07;8.73;;;;;;;;;;5039602;28;20075;-92
2023/04/09 10:36:52;;;;;;;7.75;6.72;;;;;;;;;;5043316;28;20088;-92
2023/04/09 10:39:19;;;;;;;7.82;7.03;;;;;;;;;;5037846;28;20432;-93
2023/04/09 10:41:48;;;;;;;9.50;7.55;;;;;;;;;;5041446;28;20052;-94
2023/04/09 10:44:21;;;;;;;41.30;24.33;;;;;;;;;;5025095;28;20139;-94
2023/04/09 10:46:49;;;;;;;18.40;12.27;;;;;;;;;;5045529;28;20106;-93
2023/04/09 10:49:19;;;;;;;21.67;12.73;;;;;;;;;;5045616;28;20079;-93
2023/04/09 10:51:48;;;;;;;10.45;8.73;;;;;;;;;;5044696;28;20071;-93
2023/04/09 10:54:34;;;;;;;16.77;12.55;;;;;;;;;;5045748;28;20113;-93
2023/04/09 10:57:08;;;;;;;27.85;16.20;;;;;;;;;;5047615;28;20048;-94
2023/04/09 10:59:36;;;;;;;9.95;8.50;;;;;;;;;;5046450;28;20081;-93
2023/04/09 11:02:06;;;;;;;9.82;8.70;;;;;;;;;;5041250;28;20485;-91
2023/04/09 11:04:53;;;;;;;18.20;11.27;;;;;;;;;;5050513;28;20114;-93
2023/04/09 11:07:23;;;;;;;9.70;8.77;;;;;;;;;;5048707;28;20092;-91
2023/04/09 11:09:50;;;;;;;9.73;8.82;;;;;;;;;;5049562;28;20044;-93
2023/04/09 11:12:17;;;;;;;9.35;8.45;;;;;;;;;;5043306;28;20485;-91
2023/04/09 11:14:45;;;;;;;10.63;9.55;;;;;;;;;;5043775;28;20072;-92
2023/04/09 11:17:13;;;;;;;11.27;10.05;;;;;;;;;;5042265;28;20411;-93
2023/04/09 11:19:40;;;;;;;12.05;10.07;;;;;;;;;;5042014;28;20083;-93
2023/04/09 11:22:09;;;;;;;10.27;9.25;;;;;;;;;;5047862;28;20055;-94
2023/04/09 11:24:45;;;;;;;10.38;9.30;;;;;;;;;;5043953;28;20061;-94
2023/04/09 11:27:18;;;;;;;9.13;8.25;;;;;;;;;;5049626;28;20049;-93
2023/04/09 11:30:00;;;;;;;9.75;8.85;;;;;;;;;;5045083;28;20057;-92
2023/04/09 11:32:30;;;;;;;9.77;8.68;;;;;;;;;;5035124;28;20049;-93
2023/04/09 11:35:13;;;;;;;9.65;8.75;;;;;;;;;;5073139;28;20047;-92
2023/04/09 11:37:51;;;;;;;9.65;8.75;;;;;;;;;;5049063;28;20068;-92
2023/04/09 11:40:23;;;;;;;9.75;8.75;;;;;;;;;;5063344;28;20048;-93
2023/04/09 11:42:53;;;;;;;9.63;8.73;;;;;;;;;;5047715;28;20135;-93
2023/04/09 11:45:25;;;;;;;8.93;8.02;;;;;;;;;;5060380;28;20109;-92
2023/04/09 11:48:23;;;;;;;8.02;7.32;;;;;;;;;;5049096;28;20525;-94
2023/04/09 11:50:58;;;;;;;10.02;8.90;;;;;;;;;;5047461;28;20060;-91
2023/04/09 11:53:30;;;;;;;7.93;7.07;;;;;;;;;;5048583;28;20056;-94
2023/04/09 11:56:01;;;;;;;7.50;6.80;;;;;;;;;;5053209;28;20049;-93
2023/04/09 11:58:35;;;;;;;8.02;7.25;;;;;;;;;;5038048;28;20466;-93
2023/04/09 12:01:17;;;;;;;6.60;6.00;;;;;;;;;;5068462;28;20084;-93
2023/04/09 12:04:14;;;;;;;6.15;5.65;;;;;;;;;;5039431;28;20049;-95
2023/04/09 12:06:46;;;;;;;6.80;6.20;;;;;;;;;;5051201;28;20120;-93
2023/04/09 12:09:15;;;;;;;7.40;6.70;;;;;;;;;;5031903;28;20053;-90
2023/04/09 12:11:44;;;;;;;7.30;6.70;;;;;;;;;;5047949;28;20136;-94
2023/04/09 12:14:17;;;;;;;7.10;6.50;;;;;;;;;;5051047;28;20052;-92
2023/04/09 12:16:44;;;;;;;7.30;6.70;;;;;;;;;;5049606;28;20056;-94
2023/04/09 12:19:13;;;;;;;6.75;6.05;;;;;;;;;;5054050;23;20053;-83
2023/04/09 12:21:59;;;;;;;7.07;6.38;;;;;;;;;;5025664;28;20053;-83
2023/04/09 12:24:27;;;;;;;6.65;6.05;;;;;;;;;;5023524;28;20492;-84
2023/04/09 12:26:56;;;;;;;7.95;7.25;;;;;;;;;;5023381;28;20136;-83
2023/04/09 12:29:24;;;;;;;8.60;6.82;;;;;;;;;;5043138;28;20132;-83
2023/04/09 12:31:52;;;;;;;7.57;6.88;;;;;;;;;;5025980;28;20045;-83
2023/04/09 12:34:20;;;;;;;6.93;6.32;;;;;;;;;;5028137;28;20104;-83
2023/04/09 12:36:47;;;;;;;7.43;6.72;;;;;;;;;;5031086;28;20045;-84
2023/04/09 12:39:14;;;;;;;7.43;6.82;;;;;;;;;;5028942;28;20208;-83
2023/04/09 12:41:42;;;;;;;6.88;6.30;;;;;;;;;;5029437;28;20132;-84
2023/04/09 12:44:09;;;;;;;6.25;5.65;;;;;;;;;;5028405;28;20117;-84
2023/04/09 12:46:36;;;;;;;7.70;7.00;;;;;;;;;;5028418;28;20423;-84
2023/04/09 12:49:04;;;;;;;6.93;6.30;;;;;;;;;;5028951;28;20049;-84
2023/04/09 12:51:32;;;;;;;7.38;6.68;;;;;;;;;;5033280;28;20042;-84
2023/04/09 12:53:59;;;;;;;7.80;6.90;;;;;;;;;;5030744;28;20088;-84
2023/04/09 12:56:26;;;;;;;7.03;6.43;;;;;;;;;;5030203;28;20046;-84
2023/04/09 12:58:55;;;;;;;7.10;6.50;;;;;;;;;;5030018;28;20041;-84
2023/04/09 13:01:23;;;;;;;7.43;6.75;;;;;;;;;;5026166;28;20076;-83
2023/04/09 13:03:50;;;;;;;7.70;7.00;;;;;;;;;;5021462;28;20054;-83
2023/04/09 13:06:17;;;;;;;7.85;7.10;;;;;;;;;;5021804;28;20069;-83
2023/04/09 13:08:45;;;;;;;7.13;6.43;;;;;;;;;;5023770;28;20049;-83
2023/04/09 13:11:12;;;;;;;7.82;7.03;;;;;;;;;;5043260;28;20109;-83
2023/04/09 13:13:39;;;;;;;7.18;6.47;;;;;;;;;;5024893;28;20045;-84
2023/04/09 13:16:08;;;;;;;7.63;6.82;;;;;;;;;;5026788;28;20108;-83
2023/04/09 13:18:36;;;;;;;6.90;6.20;;;;;;;;;;5044013;28;20097;-83
2023/04/09 13:21:03;;;;;;;7.57;6.88;;;;;;;;;;5028114;28;20053;-84
2023/04/09 13:23:30;;;;;;;7.28;6.57;;;;;;;;;;5044486;28;20093;-83
2023/04/09 13:25:59;;;;;;;7.55;6.85;;;;;;;;;;5026802;28;20144;-84
2023/04/09 13:28:26;;;;;;;6.80;6.20;;;;;;;;;;5043646;28;20056;-84
2023/04/09 13:30:53;;;;;;;6.95;6.35;;;;;;;;;;5043821;28;20053;-84
2023/04/09 13:33:20;;;;;;;7.07;6.45;;;;;;;;;;5046835;28;20050;-83
2023/04/09 13:35:48;;;;;;;6.78;6.18;;;;;;;;;;5048824;28;20081;-82
2023/04/09 13:38:15;;;;;;;6.28;5.68;;;;;;;;;;5028809;28;20061;-84
2023/04/09 13:40:42;;;;;;;6.90;6.20;;;;;;;;;;5028274;28;20514;-84
2023/04/09 13:43:09;;;;;;;6.53;5.90;;;;;;;;;;5025714;28;20049;-84
2023/04/09 13:45:36;;;;;;;8.07;6.47;;;;;;;;;;5026995;28;20053;-84
2023/04/09 13:48:04;;;;;;;6.07;5.53;;;;;;;;;;5027497;28;20085;-84
2023/04/09 13:50:32;;;;;;;6.40;5.90;;;;;;;;;;5044194;28;20052;-82
2023/04/09 13:53:02;;;;;;;5.88;5.38;;;;;;;;;;5024023;28;20073;-83
2023/04/09 13:55:29;;;;;;;6.32;5.78;;;;;;;;;;5025338;28;20053;-84
2023/04/09 13:57:56;;;;;;;6.55;5.95;;;;;;;;;;5026301;28;20041;-84
2023/04/09 14:00:24;;;;;;;5.47;5.05;;;;;;;;;;5027167;28;20045;-84
2023/04/09 14:02:51;;;;;;;6.78;5.15;;;;;;;;;;5025040;28;20160;-84
2023/04/09 14:05:18;;;;;;;5.30;4.90;;;;;;;;;;5024980;28;20524;-84
2023/04/09 14:07:45;;;;;;;5.18;4.78;;;;;;;;;;5024604;28;20136;-83
2023/04/09 14:10:12;;;;;;;5.72;5.22;;;;;;;;;;5024468;28;20061;-84
2023/04/09 14:12:40;;;;;;;5.57;5.10;;;;;;;;;;5024228;28;20110;-84
2023/04/09 14:15:09;;;;;;;6.38;5.80;;;;;;;;;;5023424;28;20072;-84
2023/04/09 14:17:36;;;;;;;6.45;5.53;;;;;;;;;;5024170;28;20076;-84
2023/04/09 14:20:03;;;;;;;6.50;5.90;;;;;;;;;;5024719;28;20053;-84
2023/04/09 14:22:30;;;;;;;5.40;4.90;;;;;;;;;;5027012;28;20136;-84
2023/04/09 14:24:58;;;;;;;6.28;5.70;;;;;;;;;;5030724;28;20492;-84
2023/04/09 14:27:25;;;;;;;5.30;4.88;;;;;;;;;;5044112;28;20140;-84
2023/04/09 14:29:52;;;;;;;5.40;4.90;;;;;;;;;;5025713;28;20576;-83
2023/04/09 14:32:20;;;;;;;5.20;4.80;;;;;;;;;;5029601;28;20393;-83
2023/04/09 14:34:47;;;;;;;6.22;5.72;;;;;;;;;;5027623;28;20055;-85